Time;durP1;ratioP1;P1;durP2;ratioP2;P2;SDS_P1;SDS_P2;PMS_P1;PMS_P2;Temp;Humidity;BMP_temperature;BMP_pressure;BME280_temperature;BME280_humidity;BME280_pressure;Samples;Min_cycle;Max_cycle;Signal;HPM_P1;HPM_P2
2021/01/07 00:00:07;;;;;;;26.73;13.13;;;1.10;99.90;;;1.58;94.53;100428.78;4973733;28;20038;-82
2021/01/07 00:02:33;;;;;;;23.95;13.32;;;1.10;99.90;;;1.65;94.49;100431.13;4974633;28;20058;-83
2021/01/07 00:04:59;;;;;;;22.27;12.88;;;1.10;99.90;;;1.67;94.48;100432.44;4974277;28;20062;-82
2021/01/07 00:07:25;;;;;;;27.55;13.48;;;1.10;99.90;;;1.64;94.84;100430.31;4975331;28;20035;-85
2021/01/07 00:09:51;;;;;;;26.10;12.80;;;1.10;99.90;;;1.69;94.45;100430.22;4981752;28;20049;-85
2021/01/07 00:12:17;;;;;;;26.13;14.40;;;1.10;99.90;;;1.67;94.52;100432.44;4995762;28;20434;-82
2021/01/07 00:14:43;;;;;;;23.63;13.07;;;1.20;99.90;;;1.72;94.69;100423.28;4981008;28;20033;-86
2021/01/07 00:17:09;;;;;;;24.13;12.52;;;1.20;99.90;;;1.77;94.37;100426.75;4982135;28;20019;-84
2021/01/07 00:19:35;;;;;;;24.88;13.30;;;1.20;99.90;;;1.72;94.57;100421.34;4979172;28;20467;-81
2021/01/07 00:22:00;;;;;;;24.13;13.52;;;1.20;99.90;;;1.78;94.08;100433.09;4978650;28;20117;-81
2021/01/07 00:24:26;;;;;;;26.52;12.88;;;1.20;99.90;;;1.76;94.29;100427.91;4980226;28;20031;-83
2021/01/07 00:26:52;;;;;;;22.50;11.68;;;1.20;99.90;;;1.76;94.02;100429.84;4978365;28;20033;-82
2021/01/07 00:29:18;;;;;;;25.17;13.18;;;1.20;99.90;;;1.75;94.56;100429.00;4977908;28;20498;-80
2021/01/07 00:31:44;;;;;;;22.83;12.30;;;1.20;99.90;;;1.79;94.09;100423.72;4978094;28;20114;-81
2021/01/07 00:34:13;;;;;;;21.52;11.15;;;1.20;99.90;;;1.87;93.65;100417.47;4977258;28;20023;-83
2021/01/07 00:36:40;;;;;;;23.95;11.60;;;1.20;99.90;;;1.91;93.14;100424.00;4977744;28;20037;-79
2021/01/07 00:39:05;;;;;;;19.88;11.10;;;1.30;99.90;;;1.90;93.27;100417.69;4976713;28;20375;-82
2021/01/07 00:41:31;;;;;;;17.33;10.20;;;1.30;99.90;;;1.88;92.98;100416.34;4978370;28;20177;-81
2021/01/07 00:43:59;;;;;;;18.10;9.98;;;1.30;99.90;;;1.87;92.69;100415.53;4979991;28;20070;-82
2021/01/07 00:46:29;;;;;;;19.88;10.30;;;1.30;99.90;;;1.85;92.71;100415.03;4988780;28;20035;-84
2021/01/07 00:48:55;;;;;;;18.60;10.82;;;1.30;99.90;;;1.88;92.98;100416.34;4991043;28;20427;-82
2021/01/07 00:51:30;;;;;;;19.05;11.05;;;1.30;99.90;;;1.83;93.08;100421.97;4989606;28;20093;-82
2021/01/07 00:53:56;;;;;;;20.65;10.73;;;1.30;99.90;;;1.73;93.49;100412.00;4981739;28;20035;-81
2021/01/07 00:56:22;;;;;;;18.25;10.80;;;1.20;99.90;;;1.77;93.23;100414.91;4981478;28;20035;-81
2021/01/07 00:58:48;;;;;;;17.10;10.93;;;1.20;99.90;;;1.77;93.34;100412.16;4982097;28;20053;-84
2021/01/07 01:01:14;;;;;;;23.95;11.57;;;1.20;99.90;;;1.73;93.39;100414.75;4980222;28;20031;-83
2021/01/07 01:03:40;;;;;;;22.55;12.18;;;1.20;99.90;;;1.73;93.64;100409.22;4980137;28;20086;-82
2021/01/07 01:06:06;;;;;;;22.25;12.05;;;1.20;99.90;;;1.69;93.35;100408.22;4979254;28;20027;-80
2021/01/07 01:08:32;;;;;;;23.15;12.52;;;1.20;99.90;;;1.73;93.65;100414.75;4981110;28;20430;-86
2021/01/07 01:10:59;;;;;;;22.48;11.75;;;1.20;99.90;;;1.69;93.59;100413.72;4979554;28;20070;-83
2021/01/07 01:13:25;;;;;;;20.92;11.55;;;1.20;99.90;;;1.70;93.87;100414.53;4978479;28;20035;-84
2021/01/07 01:15:51;;;;;;;22.10;11.85;;;1.10;99.90;;;1.67;93.66;100409.63;4978233;28;20101;-85
2021/01/07 01:18:17;;;;;;;20.08;11.18;;;1.10;99.90;;;1.70;93.45;100409.03;4978434;28;20278;-83
2021/01/07 01:20:42;;;;;;;19.42;10.65;;;1.10;99.90;;;1.71;93.58;100408.72;4976632;28;20031;-82
2021/01/07 01:23:11;;;;;;;17.77;10.10;;;1.20;99.90;;;1.73;93.24;100408.41;4978197;28;20066;-81
2021/01/07 01:25:37;;;;;;;20.80;11.45;;;1.20;99.90;;;1.70;93.19;100403.53;4978165;28;20066;-79
2021/01/07 01:28:03;;;;;;;22.92;10.38;;;1.20;99.90;;;1.68;93.12;100405.75;4978599;28;20031;-82
2021/01/07 01:30:29;;;;;;;19.58;11.35;;;1.20;99.90;;;1.65;93.26;100409.09;4978800;28;20072;-80
2021/01/07 01:32:56;;;;;;;19.58;10.55;;;1.10;99.90;;;1.66;92.74;100413.50;4978601;28;20027;-82
2021/01/07 01:35:22;;;;;;;18.95;9.45;;;1.10;99.90;;;1.64;92.83;100404.75;4980107;28;20545;-82
2021/01/07 01:37:48;;;;;;;20.48;9.98;;;1.10;99.90;;;1.66;93.10;100400.56;4978651;28;20046;-84
2021/01/07 01:40:15;;;;;;;23.70;10.80;;;1.10;99.90;;;1.61;93.09;100406.13;4987561;28;20039;-84
2021/01/07 01:42:41;;;;;;;21.25;11.40;;;1.10;99.90;;;1.65;92.92;100409.09;4992892;28;20034;-82
2021/01/07 01:45:09;;;;;;;19.20;9.38;;;1.10;99.90;;;1.66;92.64;100406.06;4979116;28;20062;-82
2021/01/07 01:47:35;;;;;;;19.25;10.85;;;1.10;99.90;;;1.63;93.05;100403.91;4977790;28;20081;-79
2021/01/07 01:50:02;;;;;;;21.60;10.57;;;1.10;99.90;;;1.61;92.80;100403.38;4977744;28;20034;-83
2021/01/07 01:52:31;;;;;;;25.10;11.85;;;1.10;99.90;;;1.68;92.89;100403.00;4976899;28;20034;-81
2021/01/07 01:54:56;;;;;;;25.52;12.38;;;1.10;99.90;;;1.66;92.75;100402.50;4976505;28;20506;-79
2021/01/07 01:57:28;;;;;;;23.60;12.20;;;1.10;99.90;;;1.69;92.78;100390.88;4977256;28;20034;-83
2021/01/07 01:59:54;;;;;;;24.45;12.27;;;1.10;99.90;;;1.71;92.80;100396.88;4976771;28;20039;-83
2021/01/07 02:02:20;;;;;;;23.40;11.82;;;1.20;99.90;;;1.74;93.00;100397.06;4976176;28;20053;-83
2021/01/07 02:04:47;;;;;;;23.92;12.82;;;1.10;99.90;;;1.72;92.87;100398.50;4977303;28;20426;-82
2021/01/07 02:07:26;;;;;;;27.42;14.02;;;1.10;99.90;;;1.66;93.24;100397.81;4977559;28;20062;-82
2021/01/07 02:09:53;;;;;;;29.98;14.00;;;1.20;99.90;;;1.70;92.93;100398.84;4976459;28;20023;-81
2021/01/07 02:12:21;;;;;;;29.17;15.15;;;1.10;99.90;;;1.66;93.26;100395.06;4977655;28;20023;-83
2021/01/07 02:14:47;;;;;;;40.92;17.92;;;1.20;99.90;;;1.71;92.99;100396.88;4977970;28;20027;-80
2021/01/07 02:17:16;;;;;;;34.47;16.85;;;1.20;99.90;;;1.76;93.07;100402.28;4976956;28;20035;-83
2021/01/07 02:19:43;;;;;;;35.97;15.70;;;1.20;99.90;;;1.81;92.69;100394.75;4978327;28;20110;-82
2021/01/07 02:22:13;;;;;;;31.77;16.90;;;1.20;99.90;;;1.71;93.32;100399.63;4976377;28;20074;-82
2021/01/07 02:24:38;;;;;;;36.42;18.45;;;1.20;99.90;;;1.73;93.32;100392.72;4976947;28;20049;-83
2021/01/07 02:27:13;;;;;;;40.25;17.92;;;1.20;99.90;;;1.75;93.35;100398.72;4976503;28;20574;-83
2021/01/07 02:29:39;;;;;;;31.40;16.55;;;1.30;99.90;;;1.69;93.35;100399.13;4976144;28;20122;-81
2021/01/07 02:32:08;;;;;;;32.22;15.93;;;1.30;99.90;;;1.72;93.55;100388.31;4977074;28;20027;-80
2021/01/07 02:34:34;;;;;;;32.35;17.58;;;1.20;99.90;;;1.82;92.91;100396.38;4976289;28;20101;-82
2021/01/07 02:37:00;;;;;;;35.22;16.88;;;1.30;99.90;;;1.84;92.91;100393.31;4987597;28;20418;-84
2021/01/07 02:39:26;;;;;;;33.53;16.75;;;1.30;99.90;;;1.84;92.84;100396.06;4985750;28;20061;-83
2021/01/07 02:41:56;;;;;;;33.50;16.27;;;1.30;99.90;;;1.77;93.07;100381.88;4984819;28;20037;-84
2021/01/07 02:44:24;;;;;;;34.40;16.75;;;1.30;99.90;;;1.79;93.00;100393.41;4986746;28;20045;-85
2021/01/07 02:46:52;;;;;;;35.50;16.77;;;1.30;99.90;;;1.84;93.04;100393.31;4984468;28;20041;-83
2021/01/07 02:49:19;;;;;;;33.05;16.13;;;1.30;99.90;;;1.79;93.38;100390.66;4977425;28;20073;-82
2021/01/07 02:51:47;;;;;;;36.70;16.65;;;1.30;99.90;;;1.85;93.22;100394.94;4976988;28;20023;-83
2021/01/07 02:54:29;;;;;;;31.25;16.48;;;1.30;99.90;;;1.83;93.44;100394.44;4976440;28;20526;-83
2021/01/07 02:56:55;;;;;;;37.20;16.38;;;1.40;99.90;;;1.84;92.95;100385.03;4976779;28;20197;-82
2021/01/07 02:59:21;;;;;;;31.13;15.48;;;1.30;99.90;;;1.84;93.16;100388.63;4975362;28;20502;-85
2021/01/07 03:01:46;;;;;;;36.65;16.42;;;1.40;99.90;;;1.90;92.90;100389.31;4978413;28;20039;-85
2021/01/07 03:04:12;;;;;;;31.67;16.15;;;1.40;99.90;;;1.86;92.89;100380.84;4976236;28;20038;-80
2021/01/07 03:06:38;;;;;;;37.15;15.43;;;1.40;99.90;;;1.89;93.01;100382.19;4987107;28;20035;-80
2021/01/07 03:09:04;;;;;;;32.92;16.48;;;1.40;99.90;;;1.89;92.64;100380.28;4987496;28;20042;-81
2021/01/07 03:11:30;;;;;;;37.28;19.02;;;1.40;99.90;;;1.95;92.16;100375.47;4984901;28;20045;-82
2021/01/07 03:13:56;;;;;;;42.65;19.17;;;1.40;99.90;;;1.78;92.82;100373.31;4986919;28;20054;-83
2021/01/07 03:16:22;;;;;;;42.03;19.05;;;1.40;99.90;;;1.84;92.90;100371.28;4987378;28;20035;-82
2021/01/07 03:18:48;;;;;;;49.47;22.15;;;1.40;99.90;;;1.90;92.49;100370.03;4978269;28;20054;-82
2021/01/07 03:21:13;;;;;;;46.85;20.63;;;1.40;99.90;;;1.88;92.56;100364.03;4974330;28;20037;-82
2021/01/07 03:23:39;;;;;;;44.42;20.70;;;1.50;99.90;;;1.95;92.65;100365.25;4975180;28;20037;-82
2021/01/07 03:26:05;;;;;;;47.20;22.13;;;1.50;99.90;;;1.91;92.25;100355.16;4974676;28;20070;-81
2021/01/07 03:28:31;;;;;;;47.00;20.98;;;1.50;99.90;;;1.90;92.56;100362.59;4975274;28;20384;-83
2021/01/07 03:30:57;;;;;;;51.92;21.95;;;1.50;99.90;;;1.95;92.47;100356.19;4974963;28;20065;-82
2021/01/07 03:33:22;;;;;;;47.53;21.55;;;1.50;99.90;;;2.00;92.42;100356.06;4975453;28;20031;-82
2021/01/07 03:35:48;;;;;;;44.03;21.63;;;1.50;99.90;;;1.99;92.05;100358.00;4983139;28;20041;-85
2021/01/07 03:38:23;;;;;;;48.28;20.73;;;1.50;99.90;;;1.95;92.26;100356.19;4985711;28;20038;-84
2021/01/07 03:40:49;;;;;;;34.00;16.73;;;1.50;99.90;;;2.00;92.08;100353.31;4983331;28;20065;-83
2021/01/07 03:43:15;;;;;;;44.58;21.77;;;1.50;99.90;;;1.96;92.37;100347.59;4980757;28;20281;-83
2021/01/07 03:45:40;;;;;;;38.90;19.95;;;1.50;99.90;;;2.00;92.11;100350.56;4978964;28;20118;-85
2021/01/07 03:48:07;;;;;;;48.55;22.58;;;1.50;99.90;;;1.99;92.08;100346.97;4977228;28;20379;-84
2021/01/07 03:50:32;;;;;;;37.13;20.70;;;1.50;99.90;;;2.06;91.78;100347.38;4975181;28;20403;-84
2021/01/07 03:52:58;;;;;;;42.00;21.45;;;1.50;99.90;;;2.01;91.91;100342.00;4975750;28;20031;-84
2021/01/07 03:55:24;;;;;;;42.15;20.35;;;1.50;99.90;;;2.00;91.81;100345.03;4984078;28;20031;-82
2021/01/07 03:57:50;;;;;;;43.63;22.23;;;1.50;99.90;;;1.98;92.52;100350.06;4992882;28;20066;-83
2021/01/07 04:00:17;;;;;;;40.55;21.83;;;1.50;99.90;;;2.04;91.86;100341.38;4983156;28;20030;-82
2021/01/07 04:02:43;;;;;;;43.03;21.02;;;1.50;99.90;;;2.09;92.08;100337.69;4974696;28;20395;-83
2021/01/07 04:05:09;;;;;;;44.45;22.30;;;1.50;99.90;;;2.10;91.85;100336.56;4974366;28;20133;-83
2021/01/07 04:07:38;;;;;;;44.25;21.55;;;1.50;99.90;;;2.02;91.78;100335.34;4974906;28;20039;-79
2021/01/07 04:10:09;;;;;;;43.25;21.98;;;1.50;99.90;;;2.07;91.97;100335.25;4978558;28;20438;-81
2021/01/07 04:12:36;;;;;;;44.85;22.13;;;1.50;99.90;;;2.11;92.21;100338.19;4976670;28;20027;-81
2021/01/07 04:15:06;;;;;;;49.38;23.83;;;1.50;99.90;;;2.08;92.01;100336.06;4978596;28;20065;-81
2021/01/07 04:17:33;;;;;;;43.30;21.58;;;1.50;99.90;;;2.07;92.09;100331.66;4974647;28;20034;-82
2021/01/07 04:19:59;;;;;;;45.33;22.88;;;1.60;99.90;;;2.09;92.01;100329.41;4974784;28;20502;-82
2021/01/07 04:22:26;;;;;;;47.22;23.35;;;1.60;99.90;;;2.01;92.49;100327.41;4975733;28;20043;-83
2021/01/07 04:24:51;;;;;;;46.10;22.88;;;1.50;99.90;;;2.01;92.30;100330.97;4974228;28;20042;-84
2021/01/07 04:27:17;;;;;;;48.88;23.77;;;1.50;99.90;;;1.99;92.56;100324.94;4974448;28;20031;-84
2021/01/07 04:29:45;;;;;;;44.92;23.08;;;1.50;99.90;;;2.04;92.83;100321.28;4974139;28;20046;-83
2021/01/07 04:32:11;;;;;;;48.60;22.60;;;1.50;99.90;;;1.91;93.26;100322.09;4974823;28;20030;-81
2021/01/07 04:34:37;;;;;;;52.88;24.38;;;1.50;99.90;;;1.98;93.35;100322.50;4974907;28;20023;-79
2021/01/07 04:37:03;;;;;;;48.45;24.63;;;1.50;99.90;;;1.99;92.89;100318.66;4974523;28;20030;-81
2021/01/07 04:39:29;;;;;;;45.13;23.65;;;1.50;99.90;;;1.99;93.37;100329.66;4974617;28;20030;-82
2021/01/07 04:41:55;;;;;;;50.65;24.35;;;1.50;99.90;;;2.04;93.30;100324.03;4975652;28;20427;-80
2021/01/07 04:44:22;;;;;;;50.03;24.45;;;1.50;99.90;;;2.04;93.58;100318.53;4973836;28;20122;-83
2021/01/07 04:46:48;;;;;;;50.97;24.50;;;1.50;99.90;;;1.97;93.72;100316.19;4975737;28;20069;-84
2021/01/07 04:49:14;;;;;;;54.00;25.83;;;1.50;99.90;;;2.06;93.27;100319.84;4973501;28;20038;-81
2021/01/07 04:51:40;;;;;;;51.38;26.20;;;1.50;99.90;;;2.06;93.53;100317.06;4973630;28;20031;-83
2021/01/07 04:54:06;;;;;;;57.83;25.83;;;1.50;99.90;;;1.99;93.93;100326.91;4975064;28;20466;-82
2021/01/07 04:56:33;;;;;;;56.28;26.42;;;1.50;99.90;;;2.04;93.62;100319.34;4978354;28;20055;-82
2021/01/07 04:58:59;;;;;;;53.97;25.65;;;1.50;99.90;;;2.04;93.36;100318.53;4977189;28;20037;-81
2021/01/07 05:01:25;;;;;;;54.40;27.08;;;1.50;99.90;;;2.08;93.45;100319.53;4978017;28;20038;-81
2021/01/07 05:03:52;;;;;;;56.67;27.02;;;1.50;99.90;;;2.06;93.26;100308.81;4977064;28;20054;-82
2021/01/07 05:06:25;;;;;;;54.92;26.88;;;1.50;99.90;;;2.00;94.01;100314.75;4977100;28;20027;-82
2021/01/07 05:09:07;;;;;;;50.40;25.13;;;1.50;99.90;;;1.97;93.83;100312.59;4976964;28;20038;-81
2021/01/07 05:11:34;;;;;;;51.70;26.63;;;1.50;99.90;;;2.03;93.70;100305.84;4977882;28;20086;-83
2021/01/07 05:14:06;;;;;;;54.08;26.17;;;1.50;99.90;;;2.05;93.73;100314.66;4979087;28;20030;-79
2021/01/07 05:16:33;;;;;;;53.03;26.20;;;1.50;99.90;;;2.06;93.33;100302.47;4978404;28;20089;-82
2021/01/07 05:19:07;;;;;;;48.85;25.77;;;1.50;99.90;;;1.96;93.89;100310.97;4977396;28;20057;-82
2021/01/07 05:21:34;;;;;;;51.28;24.73;;;1.50;99.90;;;2.03;93.28;100297.59;4977183;28;20030;-82
2021/01/07 05:24:03;;;;;;;50.03;25.30;;;1.50;99.90;;;2.04;93.26;100299.22;4978899;28;20034;-83
2021/01/07 05:26:29;;;;;;;56.25;28.10;;;1.50;99.90;;;2.00;92.99;100304.53;4977477;28;20026;-83
2021/01/07 05:28:58;;;;;;;53.22;26.73;;;1.50;99.90;;;2.02;92.88;100291.25;4977700;28;20031;-83
2021/01/07 05:31:27;;;;;;;57.22;28.63;;;1.50;99.90;;;1.95;93.23;100295.59;4979519;28;20026;-80
2021/01/07 05:33:56;;;;;;;59.20;26.50;;;1.50;99.90;;;2.08;93.10;100294.75;4978442;28;20039;-81
2021/01/07 05:36:31;;;;;;;55.30;26.15;;;1.50;99.90;;;2.06;92.58;100285.97;4978483;28;20062;-82
2021/01/07 05:39:07;;;;;;;60.10;27.98;;;1.50;99.90;;;2.02;92.71;100290.47;4979829;28;20035;-84
2021/01/07 05:41:34;;;;;;;;;;;1.50;99.90;;;2.06;92.79;100288.72;4978414;28;20061;-83
2021/01/07 05:44:08;;;;;;;53.60;24.88;;;1.50;99.90;;;2.08;92.69;100287.28;4980360;28;19942;-85
2021/01/07 05:46:35;;;;;;;57.60;25.70;;;1.50;99.90;;;2.06;92.55;100284.03;4978855;28;20110;-86
2021/01/07 05:49:03;;;;;;;51.95;25.88;;;1.50;99.90;;;2.12;92.21;100291.03;4977103;28;20054;-81
2021/01/07 05:51:31;;;;;;;54.00;26.58;;;1.60;99.90;;;2.11;92.55;100286.69;4975897;28;20022;-81
2021/01/07 05:54:00;;;;;;;50.33;24.52;;;1.50;99.90;;;2.18;92.05;100286.25;4975809;28;20027;-81
2021/01/07 05:56:27;;;;;;;56.15;26.52;;;1.60;99.90;;;2.06;91.94;100283.19;4975699;28;20030;-80
2021/01/07 05:58:55;;;;;;;57.00;26.52;;;1.60;99.90;;;2.08;91.92;100283.72;4975253;28;20027;-80
2021/01/07 06:01:23;;;;;;;49.47;24.67;;;1.60;99.90;;;2.08;91.82;100289.22;4977095;28;20039;-82
2021/01/07 06:03:53;;;;;;;55.75;25.30;;;1.50;99.90;;;2.07;91.96;100291.16;4977406;28;20420;-84
2021/01/07 06:06:23;;;;;;;55.53;26.17;;;1.50;99.90;;;2.12;91.62;100290.22;4977982;28;20023;-82
2021/01/07 06:08:55;;;;;;;53.53;24.83;;;1.60;99.90;;;2.21;91.67;100296.66;4976863;28;20059;-83
2021/01/07 06:11:25;;;;;;;52.80;27.40;;;1.60;99.90;;;2.17;91.88;100297.56;4977366;28;20031;-84
2021/01/07 06:13:53;;;;;;;51.20;25.25;;;1.60;99.90;;;2.19;91.45;100301.63;4979030;28;20498;-82
2021/01/07 06:16:24;;;;;;;55.60;26.02;;;1.60;99.90;;;2.17;91.66;100287.38;4996451;28;20035;-81
2021/01/07 06:18:53;;;;;;;58.58;28.02;;;1.60;99.90;;;2.19;91.96;100287.84;4981827;28;20045;-81
2021/01/07 06:21:24;;;;;;;57.08;27.05;;;1.60;99.90;;;2.17;92.09;100284.59;4976305;28;20046;-81
2021/01/07 06:23:50;;;;;;;55.33;27.40;;;1.60;99.90;;;2.18;91.69;100288.19;4977713;28;20026;-80
2021/01/07 06:26:26;;;;;;;55.88;27.88;;;1.60;99.90;;;2.20;91.87;100297.75;4975693;28;20023;-84
2021/01/07 06:28:57;;;;;;;53.65;27.15;;;1.60;99.90;;;2.22;91.88;100292.75;4975559;28;20039;-83
2021/01/07 06:31:37;;;;;;;55.65;26.63;;;1.60;99.90;;;2.20;91.87;100297.75;4977240;28;20070;-83
2021/01/07 06:34:05;;;;;;;56.00;26.92;;;1.60;99.90;;;2.26;91.48;100292.94;4975832;28;20066;-83
2021/01/07 06:36:45;;;;;;;57.03;27.35;;;1.60;99.90;;;2.25;91.57;100296.84;4975319;28;20034;-82
2021/01/07 06:39:13;;;;;;;49.92;26.58;;;1.60;99.90;;;2.19;91.87;100298.88;4975884;28;20034;-86
2021/01/07 06:41:50;;;;;;;53.05;26.48;;;1.60;99.90;;;2.16;91.71;100298.69;4975882;28;20038;-83
2021/01/07 06:44:20;;;;;;;47.88;25.95;;;1.60;99.90;;;2.24;91.65;100295.19;4975772;28;20045;-82
2021/01/07 06:46:49;;;;;;;50.95;24.00;;;1.70;99.90;;;2.27;91.64;100292.63;4977022;28;20030;-82
2021/01/07 06:49:28;;;;;;;45.75;22.58;;;1.60;99.90;;;2.29;91.69;100293.13;4975618;28;20027;-82
2021/01/07 06:52:00;;;;;;;43.45;23.27;;;1.70;99.90;;;2.26;91.65;100290.19;4977368;28;20553;-83
2021/01/07 06:54:35;;;;;;;45.70;23.02;;;1.70;99.90;;;2.27;91.43;100294.56;4976232;28;20034;-81
2021/01/07 06:57:10;;;;;;;46.85;23.35;;;1.70;99.90;;;2.27;91.54;100298.16;4975604;28;20033;-83
2021/01/07 06:59:36;;;;;;;45.03;22.35;;;1.70;99.90;;;2.31;91.50;100290.09;4976458;28;20034;-81
2021/01/07 07:02:06;;;;;;;46.00;24.38;;;1.70;99.90;;;2.27;91.60;100297.34;4975610;28;20068;-84
2021/01/07 07:04:33;;;;;;;48.40;23.83;;;1.70;99.90;;;2.23;91.77;100299.06;4977845;28;20030;-84
2021/01/07 07:07:30;;;;;;;47.60;23.40;;;1.70;99.90;;;2.24;92.00;100284.19;4976172;28;20027;-83
2021/01/07 07:10:31;;;;;;;;;;;1.70;99.90;;;2.17;91.98;100290.13;4976700;28;20039;-82
2021/01/07 07:12:59;;;;;;;46.55;22.90;;;1.60;99.90;;;2.14;91.91;100293.50;4978239;28;19986;-76
2021/01/07 07:15:27;;;;;;;53.17;25.38;;;1.70;99.90;;;2.10;91.88;100287.78;4979650;28;20049;-83
2021/01/07 07:17:57;;;;;;;48.83;24.35;;;1.70;99.90;;;2.21;91.90;100295.81;4975355;28;20390;-84
2021/01/07 07:20:25;;;;;;;58.10;25.40;;;1.70;99.90;;;2.19;91.87;100298.88;4974532;28;20026;-81
2021/01/07 07:22:53;;;;;;;49.47;23.80;;;1.70;99.90;;;2.24;91.95;100297.97;4974594;28;20034;-81
2021/01/07 07:25:24;;;;;;;48.13;24.58;;;1.70;99.90;;;2.17;91.84;100301.13;4974554;28;20062;-84
2021/01/07 07:28:04;;;;;;;50.63;24.20;;;1.70;99.90;;;2.24;91.79;100298.78;4975701;28;20039;-84
2021/01/07 07:30:33;;;;;;;45.47;23.17;;;1.70;99.90;;;2.22;92.09;100305.69;4976770;28;20035;-83
2021/01/07 07:33:01;;;;;;;54.60;25.20;;;1.70;99.90;;;2.15;92.47;100297.06;4974421;28;20030;-80
2021/01/07 07:35:34;;;;;;;50.70;24.38;;;1.70;99.90;;;2.16;92.60;100301.44;4976359;28;20030;-83
2021/01/07 07:38:01;;;;;;;52.15;24.63;;;1.70;99.90;;;2.22;92.02;100295.50;4976999;28;20030;-81
2021/01/07 07:40:41;;;;;;;51.72;23.73;;;1.70;99.90;;;2.25;92.41;100299.59;4975129;28;20288;-82
2021/01/07 07:43:09;;;;;;;48.85;24.13;;;1.70;99.90;;;2.24;92.02;100303.47;4974886;28;20030;-82
2021/01/07 07:45:40;;;;;;;46.78;24.02;;;1.70;99.90;;;2.25;92.33;100308.66;4975393;28;20030;-80
2021/01/07 07:48:10;;;;;;;51.55;24.15;;;1.70;99.90;;;2.22;92.32;100311.22;4977145;28;20482;-83
2021/01/07 07:50:36;;;;;;;49.65;24.30;;;1.70;99.90;;;2.15;92.78;100302.59;4976028;28;20023;-84
2021/01/07 07:53:13;;;;;;;44.88;23.90;;;1.70;99.90;;;2.15;92.94;100306.16;4977076;28;20027;-82
2021/01/07 07:55:42;;;;;;;45.25;22.60;;;1.70;99.90;;;2.20;92.76;100308.78;4974561;28;20035;-82
2021/01/07 07:58:15;;;;;;;47.33;24.40;;;1.60;99.90;;;2.23;92.72;100313.66;4974800;28;20089;-82
2021/01/07 08:00:57;;;;;;;44.83;22.58;;;1.60;99.90;;;2.23;92.86;100316.44;4974754;28;20117;-82
2021/01/07 08:03:32;;;;;;;45.10;23.05;;;1.70;99.90;;;2.24;92.88;100320.00;4975241;28;20054;-82
2021/01/07 08:06:00;;;;;;;44.45;23.27;;;1.70;99.90;;;2.28;92.71;100321.03;4974269;28;20058;-85
2021/01/07 08:08:33;;;;;;;40.60;21.85;;;1.70;99.90;;;2.28;92.25;100313.53;4975354;28;20062;-80
2021/01/07 08:11:01;;;;;;;45.20;22.13;;;1.70;99.90;;;2.22;92.64;100323.06;4974351;28;20058;-81
2021/01/07 08:13:30;;;;;;;42.75;22.15;;;1.70;99.90;;;2.17;92.69;100327.88;4974200;28;20023;-82
2021/01/07 08:15:59;;;;;;;44.65;22.45;;;1.70;99.90;;;2.26;92.48;100321.31;4973705;28;20089;-84
2021/01/07 08:18:29;;;;;;;44.30;23.40;;;1.70;99.90;;;2.27;92.33;100324.88;4974477;28;20097;-83
2021/01/07 08:21:09;;;;;;;47.45;22.27;;;1.80;99.90;;;2.20;92.50;100324.50;4975475;28;20031;-82
2021/01/07 08:23:35;;;;;;;47.63;23.55;;;1.70;99.90;;;2.07;92.64;100323.41;4974081;28;20589;-82
2021/01/07 08:26:05;;;;;;;48.25;22.10;;;1.70;99.90;;;2.21;92.21;100326.94;4974777;28;20033;-83
2021/01/07 08:28:38;;;;;;;47.28;22.83;;;1.70;99.90;;;2.34;92.19;100323.34;4978471;28;20046;-85
2021/01/07 08:31:14;;;;;;;48.47;23.10;;;1.80;99.90;;;2.44;91.92;100330.56;4982024;28;20042;-85
2021/01/07 08:33:41;;;;;;;49.35;24.55;;;1.80;99.90;;;2.43;91.70;100328.91;4998212;28;20038;-80
2021/01/07 08:36:17;;;;;;;47.10;23.02;;;1.90;99.90;;;2.50;91.24;100327.38;4986371;28;20091;-83
2021/01/07 08:38:54;;;;;;;50.33;23.90;;;1.90;99.90;;;2.46;90.87;100331.03;4978116;28;20054;-79
2021/01/07 08:41:31;;;;;;;56.22;25.90;;;1.90;99.90;;;2.55;90.27;100332.75;4977148;28;20038;-81
2021/01/07 08:44:01;;;;;;;49.20;23.00;;;1.90;99.90;;;2.60;90.18;100340.09;4977576;28;20062;-83
2021/01/07 08:46:42;;;;;;;46.28;23.35;;;2.00;99.90;;;2.68;90.24;100325.53;4978763;28;20042;-82
2021/01/07 08:49:16;;;;;;;41.63;20.65;;;2.10;99.90;;;2.57;89.96;100330.47;4977988;28;20035;-80
2021/01/07 08:51:48;;;;;;;36.70;19.00;;;2.20;99.90;;;2.64;88.70;100330.03;4978726;28;20049;-82
2021/01/07 08:54:18;;;;;;;33.65;17.13;;;2.10;99.90;;;2.64;88.24;100319.00;4978700;28;20130;-82
2021/01/07 08:56:48;;;;;;;33.13;18.23;;;2.20;99.90;;;2.73;88.52;100327.38;4977925;28;20086;-82
2021/01/07 08:59:32;;;;;;;33.80;18.20;;;2.20;99.90;;;2.70;87.78;100323.28;4977985;28;20038;-81
2021/01/07 09:02:05;;;;;;;34.65;19.55;;;2.20;99.90;;;2.70;87.93;100328.00;4986989;28;20039;-81
2021/01/07 09:04:41;;;;;;;38.20;18.40;;;2.20;99.90;;;2.72;87.98;100328.50;4976593;28;20030;-83
2021/01/07 09:07:13;;;;;;;38.58;18.70;;;2.10;99.90;;;2.66;88.38;100320.31;4978331;28;20034;-83
2021/01/07 09:09:51;;;;;;;37.38;18.92;;;2.10;99.90;;;2.60;88.72;100323.56;4978772;28;20129;-84
2021/01/07 09:12:32;;;;;;;38.75;18.73;;;2.10;99.90;;;2.62;88.35;100324.03;4978030;28;20051;-82
2021/01/07 09:15:09;;;;;;;36.85;19.05;;;2.10;99.90;;;2.57;88.50;100333.25;4977478;28;20035;-82
2021/01/07 09:17:57;;;;;;;33.35;18.17;;;2.00;99.90;;;2.53;88.14;100332.25;4994508;28;20504;-82
2021/01/07 09:20:32;;;;;;;37.65;18.38;;;2.00;99.90;;;2.61;87.83;100327.91;4979256;28;20034;-81
2021/01/07 09:23:16;;;;;;;36.05;18.02;;;2.00;99.90;;;2.55;88.51;100324.47;4976651;28;20023;-80
2021/01/07 09:25:44;;;;;;;34.05;17.80;;;2.00;99.90;;;2.53;89.05;100335.00;4975997;28;20033;-79
2021/01/07 09:28:10;;;;;;;34.67;18.50;;;2.00;99.90;;;2.53;89.19;100329.50;4976615;28;20030;-83
2021/01/07 09:30:36;;;;;;;34.45;18.08;;;2.00;99.90;;;2.46;88.69;100323.59;4977108;28;20034;-81
2021/01/07 09:33:03;;;;;;;34.30;18.33;;;2.00;99.90;;;2.54;88.27;100331.09;4976033;28;20026;-79
2021/01/07 09:35:29;;;;;;;33.42;19.15;;;2.00;99.90;;;2.57;88.90;100327.72;4981798;28;20103;-79
2021/01/07 09:37:56;;;;;;;34.95;15.85;;;2.00;99.90;;;2.51;88.07;100330.91;4983613;28;20070;-81
2021/01/07 09:40:22;;;;;;;34.22;17.05;;;2.00;99.90;;;2.57;88.28;100332.41;4981440;28;20030;-82
2021/01/07 09:42:49;;;;;;;33.85;17.02;;;2.10;99.90;;;2.65;87.67;100332.50;4978028;28;20031;-79
2021/01/07 09:45:15;;;;;;;33.63;15.65;;;2.00;99.90;;;2.64;87.28;100325.34;4976483;28;20031;-78
2021/01/07 09:47:41;;;;;;;34.08;17.77;;;2.10;99.90;;;2.69;87.40;100329.94;4976142;28;20398;-82
2021/01/07 09:50:11;;;;;;;33.08;16.10;;;2.00;99.90;;;2.80;86.99;100327.72;4992402;28;20114;-82
2021/01/07 09:52:39;;;;;;;30.95;16.48;;;2.10;99.90;;;2.77;87.44;100333.88;4976920;28;20403;-82
2021/01/07 09:55:08;;;;;;;32.83;15.80;;;2.10;99.90;;;2.73;87.46;100328.16;4977329;28;20033;-80
2021/01/07 09:57:35;;;;;;;31.00;16.52;;;2.20;99.90;;;2.80;86.94;100324.97;4976989;28;20037;-83
2021/01/07 10:00:05;;;;;;;28.25;14.85;;;2.20;99.90;;;2.77;87.18;100323.66;4976609;28;20038;-79
2021/01/07 10:02:32;;;;;;;31.45;14.88;;;2.20;99.90;;;2.83;86.68;100324.34;4975995;28;20035;-79
2021/01/07 10:04:58;;;;;;;29.42;15.65;;;2.30;99.90;;;2.87;86.58;100328.09;4977404;28;20023;-81
2021/01/07 10:07:24;;;;;;;25.80;14.13;;;2.30;99.90;;;2.97;86.61;100323.13;4976751;28;20042;-79
2021/01/07 10:09:50;;;;;;;31.67;14.70;;;2.40;99.90;;;2.99;86.99;100331.91;4978239;28;20506;-82
2021/01/07 10:12:16;;;;;;;26.75;14.63;;;2.40;99.90;;;2.99;86.99;100331.91;4978198;28;20027;-82
2021/01/07 10:14:41;;;;;;;26.75;14.23;;;2.40;99.90;;;2.92;86.58;100326.00;4976791;28;20027;-80
2021/01/07 10:17:08;;;;;;;27.00;13.30;;;2.40;99.90;;;3.04;87.09;100323.50;4976881;28;20439;-80
2021/01/07 10:19:37;;;;;;;25.55;13.55;;;2.40;99.90;;;3.14;87.09;100325.19;4976919;28;20058;-79